Time;durP1;ratioP1;P1;durP2;ratioP2;P2;SDS_P1;SDS_P2;PMS_P1;PMS_P2;Temp;Humidity;BMP_temperature;BMP_pressure;BME280_temperature;BME280_humidity;BME280_pressure;Samples;Min_cycle;Max_cycle;Signal;HPM_P1;HPM_P2
2023/12/04 00:00:03;;;;;;;9.30;6.73;;;2.80;93.30;;;2.64;56.58;95450.59;4980266;28;20543;-64
2023/12/04 00:02:31;;;;;;;6.70;6.07;;;2.80;93.20;;;2.64;56.81;95455.81;4983787;28;20462;-61
2023/12/04 00:04:58;;;;;;;9.87;6.73;;;2.80;93.20;;;2.63;56.58;95467.09;4980715;28;21004;-59
2023/12/04 00:07:25;;;;;;;9.50;6.57;;;2.90;93.30;;;2.62;57.60;95466.25;4986954;28;20454;-65
2023/12/04 00:09:54;;;;;;;9.57;6.60;;;2.80;93.10;;;2.62;57.34;95462.84;4980324;28;20537;-60
2023/12/04 00:12:22;;;;;;;7.67;6.10;;;2.80;93.00;;;2.61;56.09;95472.38;4981996;28;20461;-64
2023/12/04 00:14:49;;;;;;;9.03;6.77;;;2.80;92.80;;;2.60;55.98;95480.22;4980549;28;20472;-65
2023/12/04 00:17:16;;;;;;;6.77;5.40;;;2.80;92.60;;;2.56;57.08;95481.31;4989779;28;20455;-60
2023/12/04 00:19:44;;;;;;;8.70;5.90;;;2.80;92.80;;;2.55;57.15;95487.41;4981918;28;20886;-64
2023/12/04 00:22:12;;;;;;;8.13;6.00;;;2.80;92.80;;;2.53;56.37;95484.06;4982063;28;20469;-60
2023/12/04 00:24:39;;;;;;;7.53;6.03;;;2.80;92.80;;;2.53;56.96;95490.09;4980694;28;20503;-60
2023/12/04 00:27:07;;;;;;;6.67;5.80;;;2.80;92.80;;;2.54;57.28;95493.53;4980810;28;20521;-62
2023/12/04 00:29:35;;;;;;;6.87;6.07;;;2.80;92.90;;;2.54;56.77;95494.38;4980887;28;20475;-64
2023/12/04 00:32:02;;;;;;;14.43;6.50;;;2.80;92.90;;;2.55;56.52;95498.63;4980909;28;20834;-64
2023/12/04 00:34:29;;;;;;;6.60;6.00;;;2.80;92.80;;;2.55;57.23;95497.81;4981140;28;20476;-65
2023/12/04 00:36:56;;;;;;;8.37;6.63;;;2.80;92.80;;;2.56;56.48;95496.91;4979735;28;20586;-65
2023/12/04 00:39:24;;;;;;;7.80;6.40;;;2.80;92.90;;;2.56;56.81;95504.69;4978430;28;20659;-64
2023/12/04 00:41:51;;;;;;;11.53;6.53;;;2.80;93.10;;;2.57;56.96;95506.34;4983847;28;20566;-61
2023/12/04 00:44:19;;;;;;;9.90;6.73;;;2.80;93.00;;;2.54;56.66;95506.50;4976077;28;21038;-60
2023/12/04 00:46:47;;;;;;;7.90;7.00;;;2.80;93.00;;;2.49;56.50;95514.50;4977972;28;20443;-60
2023/12/04 00:49:14;;;;;;;8.67;6.37;;;2.70;92.60;;;2.46;56.86;95515.53;4977928;28;20482;-64
2023/12/04 00:51:41;;;;;;;10.87;6.17;;;2.70;92.90;;;2.46;56.76;95530.25;4983563;28;21025;-64
2023/12/04 00:54:09;;;;;;;8.17;6.47;;;2.70;92.90;;;2.47;56.93;95516.34;4982592;28;20467;-60
2023/12/04 00:56:38;;;;;;;8.97;6.27;;;2.70;93.20;;;2.47;56.31;95524.16;4983206;28;20895;-61
2023/12/04 00:59:06;;;;;;;8.07;6.47;;;2.70;93.10;;;2.43;56.29;95510.47;4986014;28;20560;-59
2023/12/04 01:01:36;;;;;;;8.23;6.10;;;2.70;92.80;;;2.41;56.20;95516.66;4978719;28;20510;-63
2023/12/04 01:04:03;;;;;;;7.97;6.13;;;2.70;92.80;;;2.37;57.12;95521.16;4982249;28;20509;-65
2023/12/04 01:06:31;;;;;;;9.77;6.30;;;2.60;93.00;;;2.39;57.17;95527.13;4982414;28;20448;-64
2023/12/04 01:08:58;;;;;;;7.93;5.70;;;2.60;93.10;;;2.39;56.77;95524.50;4978479;28;20474;-59
2023/12/04 01:11:25;;;;;;;9.70;6.00;;;2.60;93.00;;;2.37;57.12;95523.75;4979393;28;20455;-64
2023/12/04 01:13:52;;;;;;;10.50;6.07;;;2.60;92.80;;;2.37;56.46;95525.50;4983060;28;21003;-67
2023/12/04 01:16:20;;;;;;;7.10;6.40;;;2.60;92.70;;;2.36;56.45;95519.47;4982107;28;20455;-64
2023/12/04 01:18:48;;;;;;;9.80;6.47;;;2.60;92.90;;;2.36;57.40;95519.47;4979376;28;20539;-60
2023/12/04 01:21:16;;;;;;;9.13;6.40;;;2.60;93.00;;;2.39;56.71;95518.50;4982942;28;20490;-64
2023/12/04 01:23:43;;;;;;;8.23;6.60;;;2.60;93.10;;;2.41;56.85;95525.28;4976783;28;21027;-59
2023/12/04 01:26:11;;;;;;;7.20;5.73;;;2.60;92.80;;;2.41;56.38;95520.09;4979568;28;20835;-60
2023/12/04 01:28:39;;;;;;;11.90;6.60;;;2.60;92.50;;;2.41;56.20;95521.84;4977667;28;20956;-66
2023/12/04 01:31:08;;;;;;;6.80;5.37;;;2.60;92.60;;;2.41;56.13;95527.88;4977406;28;20451;-59
2023/12/04 01:33:35;;;;;;;11.20;6.30;;;2.60;92.50;;;2.42;57.05;95528.72;4982758;28;20470;-60
2023/12/04 01:36:06;;;;;;;6.87;5.50;;;2.60;92.60;;;2.41;56.58;95532.22;4980954;28;21031;-59
2023/12/04 01:38:33;;;;;;;6.90;5.60;;;2.70;92.50;;;2.41;56.48;95538.25;4976819;28;20451;-64
2023/12/04 01:41:00;;;;;;;6.37;5.80;;;2.70;92.40;;;2.42;56.54;95545.13;4982707;28;20493;-66
2023/12/04 01:43:28;;;;;;;9.70;6.50;;;2.60;92.50;;;2.43;56.72;95546.81;4977199;28;20549;-59
2023/12/04 01:45:55;;;;;;;8.87;5.80;;;2.70;92.50;;;2.43;56.70;95544.22;4979973;28;20550;-68
2023/12/04 01:48:22;;;;;;;7.40;6.27;;;2.70;92.50;;;2.45;56.22;95547.59;4979640;28;20775;-65
2023/12/04 01:50:50;;;;;;;7.30;6.33;;;2.70;92.50;;;2.46;56.98;95544.09;4976245;28;20841;-60
2023/12/04 01:53:18;;;;;;;6.93;5.33;;;2.70;92.90;;;2.46;56.78;95540.63;4981523;28;20454;-60
2023/12/04 01:55:46;;;;;;;6.33;5.70;;;2.70;92.50;;;2.47;56.43;95542.31;4982868;28;20528;-65
2023/12/04 01:58:13;;;;;;;7.33;6.10;;;2.70;92.50;;;2.49;56.43;95543.94;4978736;28;20566;-63
2023/12/04 02:00:40;;;;;;;6.27;5.63;;;2.70;92.40;;;2.48;55.66;95549.19;4978116;28;20478;-65
2023/12/04 02:03:07;;;;;;;7.17;5.87;;;2.70;91.70;;;2.47;56.64;95543.16;4977621;28;20453;-59
2023/12/04 02:05:34;;;;;;;6.10;5.50;;;2.70;92.20;;;2.46;56.40;95544.09;4977601;28;20534;-62
2023/12/04 02:08:02;;;;;;;9.10;7.20;;;2.70;91.90;;;2.44;55.71;95548.50;4980240;28;20538;-67
2023/12/04 02:10:30;;;;;;;9.07;5.87;;;2.70;92.20;;;2.43;56.43;95549.44;4981142;28;20544;-65
2023/12/04 02:12:58;;;;;;;7.00;6.07;;;2.70;91.90;;;2.42;56.07;95555.53;4979595;28;20959;-70
2023/12/04 02:15:25;;;;;;;6.10;5.50;;;2.70;92.10;;;2.44;56.07;95563.25;4980221;28;20486;-63
2023/12/04 02:17:52;;;;;;;7.90;6.00;;;2.70;92.00;;;2.42;55.86;95554.69;4983419;28;20449;-64
2023/12/04 02:20:20;;;;;;;9.37;6.03;;;2.70;91.70;;;2.40;56.46;95554.75;4979224;28;20517;-65
2023/12/04 02:22:47;;;;;;;5.70;4.90;;;2.60;91.70;;;2.39;56.14;95558.25;4979780;28;20459;-65
2023/12/04 02:25:16;;;;;;;6.20;5.60;;;2.60;91.70;;;2.40;56.46;95567.75;4981174;28;20500;-60
2023/12/04 02:27:47;;;;;;;6.60;5.00;;;2.70;92.00;;;2.41;56.01;95574.59;4978390;28;20454;-61
2023/12/04 02:30:15;;;;;;;7.00;5.73;;;2.70;92.00;;;2.40;56.08;95572.94;4978365;28;20473;-65
2023/12/04 02:32:46;;;;;;;6.03;5.43;;;2.60;91.70;;;2.43;56.64;95569.34;4982916;28;20518;-60
2023/12/04 02:35:13;;;;;;;8.23;6.30;;;2.60;91.90;;;2.41;55.83;95579.78;4982749;28;20462;-60
2023/12/04 02:37:40;;;;;;;5.77;5.20;;;2.60;91.70;;;2.37;55.73;95572.22;4983606;28;20957;-65
2023/12/04 02:40:09;;;;;;;7.70;6.00;;;2.60;91.70;;;2.33;56.74;95568.94;4980105;28;20471;-60
2023/12/04 02:42:38;;;;;;;8.43;6.00;;;2.60;91.70;;;2.34;55.50;95578.41;4979284;28;20451;-59
2023/12/04 02:45:07;;;;;;;6.47;5.70;;;2.60;91.70;;;2.35;55.90;95582.69;4980358;28;20516;-58
2023/12/04 02:47:34;;;;;;;5.73;5.03;;;2.60;91.70;;;2.36;55.38;95571.38;4979351;28;20530;-59
2023/12/04 02:50:01;;;;;;;6.13;5.27;;;2.60;91.70;;;2.37;55.72;95572.22;4983280;28;20543;-59
2023/12/04 02:52:28;;;;;;;6.57;5.87;;;2.60;91.70;;;2.33;55.79;95569.78;4990724;28;20554;-65
2023/12/04 02:54:56;;;;;;;7.90;5.43;;;2.60;91.70;;;2.32;55.16;95569.84;4982470;28;20913;-58
2023/12/04 02:57:23;;;;;;;8.37;6.13;;;2.60;91.50;;;2.29;55.41;95580.38;4987012;28;20505;-60
2023/12/04 02:59:51;;;;;;;8.20;6.07;;;2.50;91.40;;;2.26;56.01;95576.19;4980174;28;20474;-60
2023/12/04 03:02:19;;;;;;;8.27;5.40;;;2.50;91.60;;;2.23;55.65;95578.91;4987044;28;20453;-59
2023/12/04 03:04:46;;;;;;;5.83;5.33;;;2.50;91.40;;;2.18;55.02;95582.63;4984238;28;20495;-60
2023/12/04 03:07:14;;;;;;;6.03;5.43;;;2.40;91.40;;;2.15;55.58;95589.66;4983949;28;20456;-66
2023/12/04 03:09:41;;;;;;;7.63;5.77;;;2.40;91.60;;;2.13;55.83;95586.28;4982811;28;20466;-64
2023/12/04 03:12:08;;;;;;;5.73;5.17;;;2.40;91.60;;;2.10;55.58;95580.38;4987287;28;20455;-59
2023/12/04 03:14:35;;;;;;;6.60;5.23;;;2.30;91.60;;;2.07;55.50;95589.16;4982634;28;20538;-59
2023/12/04 03:17:04;;;;;;;12.60;6.10;;;2.30;91.60;;;2.04;56.05;95578.91;4986637;28;20477;-59
2023/12/04 03:19:32;;;;;;;10.13;5.63;;;2.30;91.60;;;2.02;56.30;95583.34;4980049;28;20827;-65
2023/12/04 03:21:59;;;;;;;7.37;5.30;;;2.30;91.60;;;1.99;55.68;95587.84;4980694;28;20456;-65
2023/12/04 03:24:26;;;;;;;5.70;5.10;;;2.20;91.50;;;1.93;56.35;95594.13;4984697;28;20910;-65
2023/12/04 03:26:53;;;;;;;6.37;5.80;;;2.20;91.50;;;1.89;56.10;95584.78;4984033;28;20447;-61
2023/12/04 03:29:20;;;;;;;12.07;5.37;;;2.10;91.50;;;1.85;55.74;95585.88;4984407;28;21003;-64
2023/12/04 03:31:48;;;;;;;8.37;5.20;;;2.10;91.50;;;1.82;55.77;95593.78;4979417;28;20451;-64
2023/12/04 03:34:16;;;;;;;6.30;5.33;;;2.10;91.50;;;1.78;56.46;95583.56;4985638;28;20483;-61
2023/12/04 03:36:43;;;;;;;9.03;5.33;;;2.00;91.40;;;1.76;56.09;95593.13;4981725;28;20853;-60
2023/12/04 03:39:11;;;;;;;7.70;5.70;;;2.00;91.40;;;1.71;56.62;95584.72;4980425;28;20470;-65
2023/12/04 03:41:38;;;;;;;8.20;5.60;;;2.00;91.40;;;1.71;56.18;95595.09;4980784;28;20975;-60
2023/12/04 03:44:05;;;;;;;6.00;5.00;;;1.90;91.50;;;1.68;55.90;95592.63;4979128;28;20483;-64
2023/12/04 03:46:32;;;;;;;11.10;5.90;;;1.90;91.50;;;1.68;56.37;95597.00;4978693;28;20448;-59
2023/12/04 03:49:00;;;;;;;7.17;5.20;;;1.90;91.40;;;1.65;56.49;95599.72;4987293;28;20532;-65
2023/12/04 03:51:29;;;;;;;5.30;4.70;;;1.90;91.40;;;1.62;56.13;95600.69;4980115;28;20477;-65
2023/12/04 03:53:56;;;;;;;6.17;5.57;;;1.90;91.40;;;1.60;55.25;95602.50;4986822;28;20466;-59
2023/12/04 03:56:23;;;;;;;7.17;5.50;;;1.90;91.10;;;1.56;56.26;95606.13;4983482;28;20458;-66
2023/12/04 03:58:51;;;;;;;6.57;5.70;;;1.80;91.30;;;1.53;55.42;95608.88;4984689;28;20482;-68
2023/12/04 04:01:18;;;;;;;12.40;5.60;;;1.80;91.10;;;1.49;55.95;95604.72;4983527;28;20439;-65
2023/12/04 04:03:45;;;;;;;7.60;6.10;;;1.80;91.30;;;1.47;55.77;95606.53;4981361;28;21019;-59
2023/12/04 04:06:13;;;;;;;5.73;4.37;;;1.70;91.30;;;1.42;55.74;95610.16;4980938;28;20451;-66
2023/12/04 04:08:42;;;;;;;5.30;4.80;;;1.70;91.30;;;1.41;56.14;95613.69;4980537;28;20529;-59
2023/12/04 04:11:09;;;;;;;7.10;5.60;;;1.70;91.30;;;1.39;56.28;95612.88;4980514;28;20462;-60
2023/12/04 04:13:36;;;;;;;6.90;6.00;;;1.60;91.30;;;1.38;56.17;95612.94;4981455;28;20462;-66
2023/12/04 04:16:04;;;;;;;6.67;5.97;;;1.70;91.30;;;1.37;55.80;95619.88;4980396;28;20451;-57
2023/12/04 04:18:31;;;;;;;13.33;8.20;;;1.70;91.30;;;1.37;55.79;95619.06;4979030;28;20448;-66
2023/12/04 04:20:59;;;;;;;9.20;6.83;;;1.60;91.30;;;1.34;56.27;95609.66;4979140;28;20458;-61
2023/12/04 04:23:26;;;;;;;8.73;7.40;;;1.60;91.20;;;1.30;54.92;95618.50;4983317;28;20968;-60
2023/12/04 04:25:55;;;;;;;9.50;6.80;;;1.60;91.10;;;1.26;55.88;95622.09;4987051;28;20505;-59
2023/12/04 04:28:23;;;;;;;8.23;6.60;;;1.60;91.20;;;1.23;56.61;95627.41;4980958;28;20459;-66
2023/12/04 04:30:50;;;;;;;12.27;8.20;;;1.60;91.30;;;1.23;56.48;95630.00;4986796;28;20522;-60
2023/12/04 04:33:18;;;;;;;7.40;6.50;;;1.50;91.20;;;1.23;56.28;95635.19;4976535;28;20456;-68
2023/12/04 04:35:45;;;;;;;8.10;6.40;;;1.50;91.50;;;1.24;56.65;95636.88;4986049;28;20926;-68
2023/12/04 04:38:12;;;;;;;8.47;6.70;;;1.50;91.50;;;1.26;56.18;95637.66;4986499;28;20459;-59
2023/12/04 04:40:42;;;;;;;13.60;6.37;;;1.50;91.80;;;1.26;55.53;95635.06;4985043;28;20495;-66
2023/12/04 04:43:11;;;;;;;7.47;6.37;;;1.50;91.20;;;1.24;56.48;95632.53;4979927;28;20459;-60
2023/12/04 04:45:39;;;;;;;8.13;6.30;;;1.50;91.40;;;1.22;56.38;95641.28;4985645;28;20490;-60
2023/12/04 04:48:06;;;;;;;7.27;5.90;;;1.50;91.40;;;1.23;56.04;95641.22;4978839;28;20824;-59
2023/12/04 04:50:34;;;;;;;8.70;6.93;;;1.50;91.50;;;1.23;56.68;95637.78;4985409;28;20462;-67
2023/12/04 04:53:01;;;;;;;7.43;6.23;;;1.50;91.50;;;1.25;55.78;95648.91;4988292;28;20455;-68
2023/12/04 04:55:29;;;;;;;8.93;6.33;;;1.50;91.20;;;1.25;56.29;95648.91;4977013;28;20472;-60
2023/12/04 04:57:56;;;;;;;9.30;7.00;;;1.50;91.20;;;1.24;56.17;95649.84;4977417;28;20463;-60
2023/12/04 05:00:25;;;;;;;5.40;4.87;;;1.50;91.20;;;1.23;56.53;95646.38;4988039;28;20482;-58
2023/12/04 05:02:52;;;;;;;7.70;6.03;;;1.50;91.20;;;1.24;55.98;95661.03;4977617;28;20478;-76
2023/12/04 05:05:20;;;;;;;6.43;5.40;;;1.50;91.50;;;1.24;55.58;95655.03;4980943;28;20486;-58
2023/12/04 05:07:47;;;;;;;6.73;5.33;;;1.50;91.70;;;1.26;57.20;95660.97;4981978;28;20524;-57
2023/12/04 05:10:14;;;;;;;7.67;5.47;;;1.50;91.90;;;1.28;56.29;95650.53;4981890;28;20468;-58
2023/12/04 05:12:42;;;;;;;8.73;7.03;;;1.60;91.70;;;1.30;56.14;95659.94;4984479;28;20796;-59
2023/12/04 05:15:10;;;;;;;9.50;6.10;;;1.60;91.70;;;1.32;57.49;95662.47;4982744;28;20478;-59
2023/12/04 05:17:39;;;;;;;8.23;7.23;;;1.60;92.40;;;1.34;56.32;95663.25;4981128;28;20514;-59
2023/12/04 05:20:08;;;;;;;7.20;6.00;;;1.60;91.90;;;1.36;55.83;95671.78;4980972;28;20478;-75
2023/12/04 05:22:36;;;;;;;8.80;6.77;;;1.60;92.20;;;1.37;56.91;95663.94;4988397;28;20831;-77
2023/12/04 05:25:04;;;;;;;9.00;7.10;;;1.70;91.90;;;1.40;57.36;95658.63;4983369;28;20564;-78
2023/12/04 05:27:31;;;;;;;6.87;5.87;;;1.70;92.60;;;1.48;57.64;95662.66;4980340;28;20448;-60
2023/12/04 05:29:58;;;;;;;5.23;4.47;;;1.70;92.60;;;1.53;58.21;95658.13;4982677;28;20479;-60
2023/12/04 05:32:26;;;;;;;6.57;5.90;;;1.70;93.10;;;1.58;57.63;95661.34;4979604;28;20472;-59
2023/12/04 05:34:54;;;;;;;10.33;6.60;;;1.80;92.90;;;1.59;56.21;95666.47;4980815;28;20473;-59
2023/12/04 05:37:22;;;;;;;11.90;6.93;;;1.90;92.20;;;1.59;56.66;95668.22;4978706;28;20451;-60
2023/12/04 05:39:49;;;;;;;11.57;7.37;;;1.80;91.90;;;1.57;55.97;95664.88;4983362;28;20800;-60
2023/12/04 05:42:16;;;;;;;29.13;11.63;;;1.80;91.80;;;1.54;56.73;95665.84;4978962;28;20459;-67
2023/12/04 05:44:44;;;;;;;28.77;14.07;;;1.80;91.40;;;1.51;55.21;95665.13;4978508;28;20495;-67
2023/12/04 05:47:11;;;;;;;44.37;16.50;;;1.80;91.00;;;1.46;55.63;95665.31;4978772;28;20478;-69
2023/12/04 05:49:38;;;;;;;24.30;11.23;;;1.70;91.00;;;1.42;55.55;95671.53;4982165;28;20557;-60
2023/12/04 05:52:07;;;;;;;18.90;10.50;;;1.70;90.90;;;1.39;56.35;95667.31;4977062;28;20835;-62
2023/12/04 05:54:35;;;;;;;12.83;8.13;;;1.70;91.30;;;1.40;56.03;95675.94;4979360;28;20477;-59
2023/12/04 05:57:02;;;;;;;13.83;8.00;;;1.70;91.30;;;1.40;56.05;95676.78;4978479;28;20478;-58
2023/12/04 05:59:29;;;;;;;14.73;8.47;;;1.70;91.30;;;1.45;55.89;95673.16;4981019;28;20478;-67
2023/12/04 06:01:56;;;;;;;13.90;8.10;;;1.70;91.30;;;1.48;55.33;95675.63;4978382;28;20455;-59
2023/12/04 06:04:24;;;;;;;8.50;6.87;;;1.70;91.20;;;1.50;55.67;95669.44;4980579;28;21077;-60
2023/12/04 06:06:51;;;;;;;9.80;6.20;;;1.80;91.10;;;1.53;55.47;95677.09;4979453;28;20459;-66
2023/12/04 06:09:19;;;;;;;12.07;7.13;;;1.80;90.90;;;1.54;54.75;95670.19;4980665;28;20470;-59
2023/12/04 06:11:47;;;;;;;7.90;6.50;;;1.80;90.70;;;1.54;54.68;95667.59;4983603;28;20451;-62
2023/12/04 06:14:14;;;;;;;10.43;6.40;;;1.80;90.70;;;1.55;55.64;95677.03;4983218;28;20474;-62
2023/12/04 06:16:41;;;;;;;6.73;5.90;;;1.80;90.80;;;1.56;54.41;95683.91;4983031;28;20463;-59
2023/12/04 06:19:08;;;;;;;10.50;5.50;;;1.80;90.80;;;1.58;55.98;95677.75;4985642;28;20890;-60
2023/12/04 06:21:36;;;;;;;5.33;4.93;;;1.90;90.90;;;1.61;54.93;95682.81;4983492;28;20454;-66
2023/12/04 06:24:05;;;;;;;6.20;4.80;;;1.90;90.70;;;1.66;54.70;95681.75;4983870;28;20915;-60
2023/12/04 06:26:34;;;;;;;6.83;4.37;;;1.90;90.60;;;1.68;55.49;95688.56;4982962;28;20490;-61
2023/12/04 06:29:02;;;;;;;8.10;5.73;;;1.90;90.50;;;1.73;55.63;95693.56;4984174;28;20486;-67
2023/12/04 06:31:30;;;;;;;8.80;5.00;;;1.90;90.50;;;1.73;54.41;95686.63;4981643;28;20839;-60
2023/12/04 06:33:58;;;;;;;5.80;5.17;;;2.00;90.20;;;1.74;55.05;95703.88;4983203;28;20470;-60
2023/12/04 06:36:25;;;;;;;14.47;5.90;;;2.00;90.30;;;1.76;55.09;95696.88;4982309;28;20463;-60
2023/12/04 06:38:53;;;;;;;12.43;6.63;;;2.00;90.30;;;1.83;54.26;95699.19;4985116;28;20475;-61
2023/12/04 06:41:21;;;;;;;17.13;10.50;;;2.10;90.30;;;1.92;55.03;95704.84;4981783;28;20462;-68
2023/12/04 06:43:50;;;;;;;10.50;6.10;;;2.10;90.30;;;1.99;54.44;95710.59;4981244;28;20473;-58
2023/12/04 06:46:18;;;;;;;11.83;5.40;;;2.20;89.70;;;2.02;53.47;95718.25;4981455;28;20499;-69
2023/12/04 06:48:46;;;;;;;12.17;6.30;;;2.30;88.80;;;2.07;54.34;95721.47;4985000;28;20458;-61
2023/12/04 06:51:13;;;;;;;5.93;5.20;;;2.30;89.60;;;2.11;53.98;95728.22;4981563;28;20987;-58
2023/12/04 06:53:40;;;;;;;7.77;5.33;;;2.40;89.70;;;2.17;54.17;95727.13;4987815;28;21036;-60
2023/12/04 06:56:10;;;;;;;6.13;5.10;;;2.40;89.30;;;2.20;53.67;95720.94;4982628;28;20499;-70
2023/12/04 06:58:37;;;;;;;9.00;5.30;;;2.40;88.90;;;2.20;52.68;95724.41;4983908;28;20858;-69
2023/12/04 07:01:06;;;;;;;13.70;6.03;;;2.50;87.80;;;2.23;53.62;95721.66;4980572;28;21038;-69
2023/12/04 07:03:34;;;;;;;10.60;6.10;;;2.50;88.60;;;2.26;53.26;95716.34;4984293;28;20462;-70
2023/12/04 07:06:01;;;;;;;7.10;6.07;;;2.50;88.50;;;2.35;53.56;95720.25;4982232;28;20502;-60
2023/12/04 07:08:28;;;;;;;7.60;5.80;;;2.60;88.70;;;2.44;52.89;95719.00;4984541;28;20931;-61
2023/12/04 07:10:56;;;;;;;12.43;5.67;;;2.70;88.00;;;2.48;52.37;95721.41;4985691;28;20853;-68
2023/12/04 07:13:23;;;;;;;11.83;5.83;;;2.70;86.90;;;2.54;54.72;95720.28;4982404;28;20459;-59
2023/12/04 07:15:51;;;;;;;7.50;5.80;;;2.80;90.30;;;2.65;53.86;95727.56;4983915;28;20478;-68
2023/12/04 07:18:19;;;;;;;9.27;6.37;;;2.90;90.30;;;2.76;52.47;95729.66;4982602;28;20549;-61
2023/12/04 07:20:47;;;;;;;8.67;5.87;;;3.00;87.90;;;2.83;53.32;95737.09;4984095;28;20975;-68
2023/12/04 07:23:15;;;;;;;10.37;6.07;;;3.00;88.30;;;2.87;52.48;95735.22;4981526;28;20976;-61
2023/12/04 07:25:42;;;;;;;8.60;5.80;;;3.10;87.50;;;2.96;52.86;95736.53;4985007;28;20505;-69
2023/12/04 07:28:09;;;;;;;8.93;5.77;;;3.20;87.20;;;3.00;52.41;95732.88;4982651;28;20943;-67
2023/12/04 07:30:37;;;;;;;9.73;6.20;;;3.20;86.90;;;3.07;52.75;95744.69;4984825;28;20501;-60
2023/12/04 07:33:04;;;;;;;7.90;6.37;;;3.30;86.90;;;3.15;52.94;95745.16;4980629;28;21111;-67
2023/12/04 07:35:33;;;;;;;49.30;18.27;;;3.40;87.00;;;3.27;52.18;95741.13;4985708;28;20486;-58
2023/12/04 07:38:01;;;;;;;46.60;14.47;;;3.50;86.40;;;3.34;51.98;95731.25;4980604;28;20447;-68
2023/12/04 07:40:28;;;;;;;34.10;12.50;;;3.50;85.70;;;3.43;51.78;95736.03;4985176;28;20505;-60
2023/12/04 07:42:55;;;;;;;8.33;6.17;;;3.60;85.30;;;3.56;51.30;95731.91;4980423;28;20451;-68
2023/12/04 07:45:23;;;;;;;6.57;5.83;;;3.70;84.20;;;3.89;50.94;95727.69;4983231;28;20550;-60
2023/12/04 07:47:51;;;;;;;5.70;5.20;;;4.00;84.60;;;4.33;50.66;95726.31;4980570;28;20507;-60
2023/12/04 07:50:18;;;;;;;9.50;5.43;;;4.30;83.50;;;4.88;50.36;95733.78;4983117;28;20545;-59
2023/12/04 07:52:47;;;;;;;12.50;6.50;;;4.90;84.10;;;5.60;49.23;95725.44;4980696;28;20514;-64
2023/12/04 07:55:14;;;;;;;8.87;5.57;;;5.50;82.70;;;6.31;48.33;95721.34;4982607;28;20475;-60
2023/12/04 07:57:41;;;;;;;7.63;4.83;;;6.10;81.00;;;6.91;47.66;95733.31;4980975;28;20947;-61
2023/12/04 08:00:10;;;;;;;7.03;5.53;;;6.70;78.50;;;7.27;45.25;95732.78;4979344;28;20483;-60
2023/12/04 08:02:37;;;;;;;6.40;5.13;;;7.20;74.00;;;7.36;45.14;95736.59;4981305;28;20459;-67
2023/12/04 08:05:06;;;;;;;6.30;5.13;;;7.40;72.50;;;7.30;45.48;95734.38;4981161;28;20475;-60
2023/12/04 08:07:33;;;;;;;10.93;6.63;;;7.40;71.70;;;7.20;44.44;95730.66;4983189;28;20454;-67
2023/12/04 08:10:02;;;;;;;8.03;5.27;;;7.30;69.80;;;7.03;44.45;95743.00;4982452;28;20590;-66
2023/12/04 08:12:30;;;;;;;13.67;6.40;;;7.20;69.30;;;6.87;44.87;95744.91;4980847;28;20541;-67
2023/12/04 08:14:57;;;;;;;7.43;5.40;;;7.10;69.70;;;6.72;45.61;95742.28;4982043;28;20475;-60
2023/12/04 08:17:24;;;;;;;4.53;4.13;;;6.90;70.00;;;6.62;45.28;95742.03;4980424;28;20538;-66
2023/12/04 08:19:51;;;;;;;5.70;4.73;;;6.80;70.10;;;6.46;44.73;95730.84;4982373;28;20974;-60
2023/12/04 08:22:19;;;;;;;7.87;4.90;;;6.70;68.80;;;6.37;45.67;95742.69;4980105;28;20521;-67
2023/12/04 08:24:46;;;;;;;6.10;5.50;;;6.50;69.20;;;6.26;44.87;95739.91;4982482;28;21255;-69
2023/12/04 08:27:15;;;;;;;4.80;4.37;;;6.40;68.10;;;6.17;45.32;95740.44;4980502;28;20495;-64
2023/12/04 08:29:42;;;;;;;5.80;4.87;;;6.30;68.80;;;6.13;45.50;95739.75;4986321;28;20885;-67
2023/12/04 08:32:09;;;;;;;5.70;4.57;;;6.30;70.00;;;6.14;45.70;95740.63;4978951;28;20827;-67
2023/12/04 08:34:37;;;;;;;7.20;5.10;;;6.20;70.50;;;6.22;46.13;95743.63;4985258;28;20475;-67
2023/12/04 08:37:04;;;;;;;6.93;6.23;;;6.30;71.00;;;6.31;45.85;95739.63;4981115;28;20451;-68
2023/12/04 08:39:32;;;;;;;7.03;6.43;;;6.40;70.90;;;6.37;45.41;95737.47;4980092;28;20513;-68
2023/12/04 08:41:59;;;;;;;4.43;4.03;;;6.50;69.90;;;6.50;44.89;95741.94;4975680;28;20462;-61
2023/12/04 08:44:28;;;;;;;4.90;4.40;;;6.60;69.10;;;6.62;44.12;95738.59;4979281;28;20467;-60
2023/12/04 08:46:57;;;;;;;6.27;4.70;;;6.70;68.00;;;6.89;44.64;95740.41;4981912;28;20983;-60
2023/12/04 08:49:24;;;;;;;4.53;4.13;;;6.90;69.40;;;7.58;45.06;95737.81;4979810;28;20885;-60
2023/12/04 08:51:53;;;;;;;4.83;4.43;;;7.40;70.00;;;8.31;43.90;95725.97;4982813;28;20481;-65
2023/12/04 08:54:21;;;;;;;7.53;4.90;;;8.00;69.00;;;9.06;43.50;95736.53;4981139;28;21100;-60
2023/12/04 08:56:48;;;;;;;4.70;4.30;;;8.70;68.70;;;9.86;42.66;95727.25;4980836;28;20563;-67
2023/12/04 08:59:16;;;;;;;4.37;3.97;;;9.40;68.40;;;10.56;40.96;95718.44;4981317;28;20482;-68
2023/12/04 09:01:45;;;;;;;4.40;3.90;;;10.10;63.60;;;11.14;40.46;95725.38;4980165;28;20464;-60
2023/12/04 09:04:12;;;;;;;4.40;3.93;;;10.70;62.50;;;11.65;38.71;95713.41;4980329;28;20486;-61
2023/12/04 09:06:39;;;;;;;4.47;4.10;;;11.30;59.60;;;12.12;37.28;95710.44;4980871;28;20494;-69
2023/12/04 09:09:07;;;;;;;4.23;3.83;;;11.80;57.70;;;12.48;38.19;95709.13;4983578;28;20552;-69
2023/12/04 09:11:34;;;;;;;5.73;4.50;;;12.10;58.00;;;12.81;37.10;95704.56;4981111;28;20455;-60
2023/12/04 09:14:02;;;;;;;4.37;3.60;;;12.50;56.50;;;13.15;37.68;95712.19;4979389;28;21041;-69
2023/12/04 09:16:29;;;;;;;3.27;3.03;;;12.80;57.50;;;13.49;36.54;95703.09;4981415;28;20517;-60
2023/12/04 09:18:58;;;;;;;3.80;3.50;;;13.20;56.00;;;13.86;35.76;95700.63;4979074;28;20483;-59
2023/12/04 09:21:26;;;;;;;5.50;3.90;;;13.50;54.60;;;14.13;35.09;95704.38;4982663;28;20879;-61
2023/12/04 09:23:53;;;;;;;3.50;3.00;;;13.80;53.50;;;14.42;34.83;95695.53;4982001;28;20533;-65
2023/12/04 09:26:21;;;;;;;4.43;4.13;;;14.10;53.10;;;14.74;34.87;95694.38;4978497;28;20527;-62
2023/12/04 09:28:48;;;;;;;3.53;3.20;;;14.30;52.90;;;14.88;33.94;95693.88;4982189;28;20553;-67
2023/12/04 09:31:15;;;;;;;2.90;2.70;;;14.50;51.80;;;14.99;34.08;95691.03;4978267;28;20948;-60
2023/12/04 09:33:43;;;;;;;3.90;3.60;;;14.70;51.30;;;15.19;33.33;95683.81;4977207;28;20455;-60
2023/12/04 09:36:12;;;;;;;4.10;3.80;;;14.90;50.40;;;15.39;31.87;95686.38;4978548;28;20514;-69
2023/12/04 09:38:39;;;;;;;3.70;3.40;;;15.00;48.60;;;15.44;32.62;95694.69;4981749;28;20475;-60
2023/12/04 09:41:07;;;;;;;3.97;3.03;;;15.10;48.80;;;15.44;31.99;95686.75;4978346;28;20452;-60
2023/12/04 09:43:34;;;;;;;5.10;3.47;;;15.10;48.40;;;15.25;32.70;95687.69;4981084;28;20458;-69
2023/12/04 09:46:02;;;;;;;3.20;3.00;;;15.00;48.70;;;15.09;32.84;95685.69;4982229;28;21066;-68
2023/12/04 09:48:29;;;;;;;4.23;3.93;;;14.90;48.60;;;15.06;31.94;95678.88;4985025;28;20545;-61
2023/12/04 09:50:57;;;;;;;4.47;4.10;;;14.90;47.90;;;15.20;32.28;95674.06;4983469;28;20506;-70
2023/12/04 09:53:25;;;;;;;4.70;3.80;;;14.90;48.00;;;15.47;31.81;95669.72;4985188;28;20466;-69
2023/12/04 09:55:52;;;;;;;3.63;3.33;;;15.10;47.30;;;15.72;31.72;95666.31;4983483;28;20478;-60
2023/12/04 09:58:20;;;;;;;3.80;3.43;;;15.30;47.60;;;16.13;31.14;95669.31;4984140;28;20943;-68
2023/12/04 10:00:48;;;;;;;4.10;3.80;;;15.70;47.30;;;16.58;30.98;95661.34;4985630;28;20552;-70
2023/12/04 10:03:15;;;;;;;6.03;4.00;;;16.10;46.60;;;17.07;29.99;95669.56;4982906;28;20546;-61
2023/12/04 10:05:44;;;;;;;5.53;4.00;;;16.50;45.60;;;17.56;30.19;95663.53;4983469;28;20573;-61
2023/12/04 10:08:11;;;;;;;3.73;3.30;;;16.90;45.90;;;18.03;28.82;95656.78;4984134;28;20447;-70
2023/12/04 10:10:40;;;;;;;3.93;3.63;;;17.40;44.30;;;18.45;28.98;95663.72;4983194;28;20470;-69
2023/12/04 10:13:07;;;;;;;4.63;4.10;;;17.80;45.10;;;18.85;29.13;95662.00;4981621;28;20521;-68
2023/12/04 10:15:35;;;;;;;6.23;3.83;;;18.20;45.10;;;19.23;28.37;95664.88;4984652;28;20477;-60
2023/12/04 10:18:02;;;;;;;4.00;3.43;;;18.60;43.80;;;19.61;27.63;95653.47;4982820;28;20490;-69
2023/12/04 10:20:30;;;;;;;4.63;4.23;;;18.90;42.70;;;19.90;27.40;95657.31;4984770;28;20586;-70
2023/12/04 10:22:58;;;;;;;7.90;3.10;;;19.30;42.10;;;20.21;26.38;95651.91;4982142;28;20452;-61
2023/12/04 10:25:27;;;;;;;4.13;3.10;;;19.50;40.60;;;20.51;26.76;95651.94;4984783;28;20864;-70
2023/12/04 10:27:55;;;;;;;4.97;3.80;;;19.90;42.00;;;20.82;26.25;95640.28;4981731;28;20577;-69
2023/12/04 10:30:27;;;;;;;3.77;3.43;;;20.20;40.60;;;21.16;26.16;95639.69;4987110;28;20571;-71